ADDS METAR Data INFO
IDs: Format: Raw Decoded Include TAF

Data at: 1957 UTC 25 Feb 2018

KBWD 250915Z AUTO 00000KT 10SM BKN044 02/01 A3001 RMK AO2
KBWD 250855Z AUTO 00000KT 10SM BKN046 03/03 A3001 RMK AO2
KBWD 250835Z AUTO 12003KT 10SM BKN046 03/03 A3002 RMK AO2
KBWD 250815Z AUTO 00000KT 10SM OVC046 04/03 A3003 RMK AO2
KBWD 250755Z AUTO 00000KT 10SM BKN046 OVC050 05/02 A3003 RMK AO2
KBWD 250735Z AUTO 19003KT 10SM OVC048 04/04 A3003 RMK AO2
KBWD 250715Z AUTO 13003KT 10SM OVC050 04/04 A3003 RMK AO2
KBWD 250655Z AUTO 00000KT 10SM OVC050 04/03 A3003 RMK AO2
KBWD 250635Z AUTO 00000KT 10SM OVC050 04/04 A3003 RMK AO2
KBWD 250615Z AUTO 00000KT 10SM BKN048 OVC055 05/04 A3002 RMK AO2
KBWD 250555Z AUTO 00000KT 10SM OVC050 05/05 A3002 RMK AO2
KBWD 250535Z AUTO 00000KT 10SM FEW040 OVC050 07/04 A3001 RMK AO2
KBWD 250515Z AUTO 34005KT 10SM FEW042 OVC050 07/04 A3002 RMK AO2
KBWD 250455Z AUTO 01003KT 10SM FEW044 OVC050 07/05 A3002 RMK AO2
KBWD 250315Z AUTO 00000KT 10SM OVC036 09/05 A2999 RMK AO2
KBWD 250255Z AUTO 00000KT 10SM BKN038 OVC046 10/07 A2998 RMK AO2
KBWD 250235Z AUTO 00000KT 10SM BKN040 OVC046 10/05 A2996 RMK AO2
KBWD 250215Z AUTO 12003KT 10SM SCT040 BKN046 11/06 A2996 RMK AO2
KBWD 250155Z AUTO 00000KT 10SM SCT036 SCT042 12/05 A2995 RMK AO2
KBWD 250135Z AUTO 00000KT 10SM FEW027 BKN034 BKN041 13/04 A2994 RMK AO2
KBWD 250115Z AUTO 00000KT 10SM SCT034 BKN043 BKN049 15/04 A2993 RMK AO2
KBWD 250055Z AUTO 33005KT 10SM CLR 15/03 A2993 RMK AO2
KBWD 250035Z AUTO 32007KT 10SM CLR 17/03 A2992 RMK AO2
KBWD 250015Z AUTO 31008KT 10SM CLR 18/03 A2992 RMK AO2
KBWD 242355Z AUTO 31006KT 10SM CLR 20/03 A2991 RMK AO2
KBWD 242335Z AUTO 30008KT 10SM CLR 20/03 A2991 RMK AO2
KBWD 242315Z AUTO 32008KT 10SM CLR 20/03 A2990 RMK AO2
KBWD 242255Z AUTO 33011KT 10SM CLR 20/03 A2989 RMK AO2
KBWD 242235Z AUTO 33012KT 10SM CLR 20/03 A2989 RMK AO2
KBWD 242215Z AUTO 33013G16KT 10SM CLR 21/05 A2988 RMK AO2
KBWD 242155Z AUTO 32014KT 10SM CLR 21/06 A2988 RMK AO2
KBWD 242135Z AUTO 34013G17KT 10SM CLR 21/07 A2987 RMK AO2
KBWD 242115Z AUTO 32014G21KT 10SM CLR 20/07 A2987 RMK AO2
KBWD 242055Z AUTO 32016G20KT 10SM CLR 21/09 A2988 RMK AO2
KBWD 242035Z AUTO 32014G19KT 10SM CLR 22/12 A2988 RMK AO2
KBWD 242015Z AUTO 33014KT 10SM CLR 22/12 A2987 RMK AO2
KBWD 241955Z AUTO 34014G24KT 10SM CLR 22/13 A2988 RMK AO2
KBWD 241935Z AUTO 32012KT 270V330 10SM CLR 23/10 A2988 RMK AO2
KBWD 241915Z AUTO 30012G17KT 10SM CLR 23/10 A2988 RMK AO2
KBWD 241855Z AUTO 31013G17KT 10SM FEW032 BKN040 23/09 A2988 RMK AO2
KBWD 241835Z AUTO 31010G15KT 10SM FEW026 BKN032 BKN042 22/15 A2989 RMK AO2
KBWD 241815Z AUTO 31003KT 10SM FEW021 SCT028 20/17 A2989 RMK AO2
KBWD 241755Z AUTO 27003KT 10SM CLR 20/17 A2989 RMK AO2
KBWD 241735Z AUTO 30004KT 10SM FEW014 18/18 A2990 RMK AO2
KBWD 241715Z AUTO 29006KT 9SM FEW004 SCT025 17/17 A2990 RMK AO2
KBWD 241655Z AUTO 28005KT 5SM BR BKN004 16/16 A2990 RMK AO2
KBWD 241635Z AUTO 31006KT 6SM BR BKN004 15/15 A2990 RMK AO2
KBWD 241615Z AUTO 33007KT 8SM OVC004 15/15 A2990 RMK AO2
KBWD 241555Z AUTO 32006KT 5SM BR OVC004 16/16 A2989 RMK AO2
KBWD 241535Z AUTO 25003KT 4SM BR SCT005 BKN013 17/17 A2989 RMK AO2
KBWD 241515Z AUTO 00000KT 2 1/2SM BR SCT005 BKN013 17/17 A2988 RMK AO2
KBWD 241455Z AUTO 00000KT M1/4SM -RA BKN005 OVC013 16/16 A2988 RMK AO2 P0001
KBWD 241435Z AUTO 00000KT 1/4SM -RA VV002 15/15 A2988 RMK AO2
KBWD 241415Z AUTO 00000KT 3/4SM -RA BKN008 BKN012 16/16 A2987 RMK AO2
KBWD 241355Z AUTO 00000KT M1/4SM FG OVC008 15/15 A2986 RMK AO2
KBWD 241335Z AUTO 00000KT 1/2SM FG OVC005 15/15 A2985 RMK AO2
KBWD 241315Z AUTO 28004KT 1 1/4SM BR OVC004 15/15 A2985 RMK AO2
KBWD 241255Z AUTO 19005KT 2SM BR OVC002 16/16 A2983 RMK AO2
KBWD 241235Z AUTO 16007KT 3/4SM BR OVC002 15/15 A2982 RMK AO2
KBWD 241215Z AUTO 17007KT 3/4SM BR OVC002 15/15 A2982 RMK AO2
KBWD 241155Z AUTO 22006KT 1/2SM FG OVC002 14/14 A2984 RMK AO2
KBWD 241135Z AUTO 14008KT 1 1/2SM BR OVC002 16/16 A2982 RMK AO2
KBWD 241115Z AUTO 15008KT 1SM BR OVC002 15/15 A2982 RMK AO2
KBWD 241055Z AUTO 13008KT 1/4SM FG OVC002 12/12 A2983 RMK AO2
KBWD 241035Z AUTO 26004KT 1/2SM FG OVC002 10/10 A2984 RMK AO2
KBWD 241015Z AUTO 23005KT 1/2SM FG OVC002 10/10 A2985 RMK AO2
KBWD 240955Z AUTO 00000KT 1/2SM -RA OVC002 09/09 A2985 RMK AO2
KBWD 240935Z AUTO 00000KT 1/2SM FG OVC002 08/08 A2988 RMK AO2
KBWD 240915Z AUTO 00000KT 1/4SM FG OVC002 08/08 A2988 RMK AO2
KBWD 240855Z AUTO 32003KT 1/2SM FG OVC002 08/08 A2990 RMK AO2
KBWD 240835Z AUTO 32005KT 3/4SM -RA OVC002 08/08 A2991 RMK AO2
KBWD 240815Z AUTO 08005KT 1/4SM FG OVC002 08/08 A2992 RMK AO2